sensor_id;sensor_type;location;lat;lon;timestamp;P1;durP1;ratioP1;P2;durP2;ratioP2
8139;SDS011;4111;50.972;7.072;2023-07-31T00:01:19;4.20;;;2.73;;
8139;SDS011;4111;50.972;7.072;2023-07-31T00:03:46;5.57;;;3.33;;
8139;SDS011;4111;50.972;7.072;2023-07-31T00:06:13;5.00;;;3.00;;
8139;SDS011;4111;50.972;7.072;2023-07-31T00:08:39;5.60;;;3.17;;
8139;SDS011;4111;50.972;7.072;2023-07-31T00:11:06;6.27;;;3.13;;
8139;SDS011;4111;50.972;7.072;2023-07-31T00:13:32;7.03;;;3.63;;
8139;SDS011;4111;50.972;7.072;2023-07-31T00:15:59;5.70;;;3.53;;
8139;SDS011;4111;50.972;7.072;2023-07-31T00:18:25;4.33;;;3.33;;
8139;SDS011;4111;50.972;7.072;2023-07-31T00:20:52;4.50;;;3.20;;
8139;SDS011;4111;50.972;7.072;2023-07-31T00:23:18;8.07;;;3.37;;
8139;SDS011;4111;50.972;7.072;2023-07-31T00:25:44;6.13;;;3.40;;
8139;SDS011;4111;50.972;7.072;2023-07-31T00:28:11;6.03;;;3.63;;
8139;SDS011;4111;50.972;7.072;2023-07-31T00:30:37;5.83;;;3.40;;
8139;SDS011;4111;50.972;7.072;2023-07-31T00:33:04;6.53;;;3.43;;
8139;SDS011;4111;50.972;7.072;2023-07-31T00:35:30;6.23;;;3.37;;
8139;SDS011;4111;50.972;7.072;2023-07-31T00:37:57;5.63;;;3.17;;
8139;SDS011;4111;50.972;7.072;2023-07-31T00:40:24;5.60;;;3.33;;
8139;SDS011;4111;50.972;7.072;2023-07-31T00:42:51;7.23;;;3.33;;
8139;SDS011;4111;50.972;7.072;2023-07-31T00:45:17;6.10;;;3.47;;
8139;SDS011;4111;50.972;7.072;2023-07-31T00:47:44;3.87;;;3.27;;
8139;SDS011;4111;50.972;7.072;2023-07-31T00:50:10;3.57;;;3.27;;
8139;SDS011;4111;50.972;7.072;2023-07-31T00:52:37;7.47;;;3.33;;
8139;SDS011;4111;50.972;7.072;2023-07-31T00:55:03;6.17;;;3.37;;
8139;SDS011;4111;50.972;7.072;2023-07-31T00:57:31;5.93;;;3.17;;
8139;SDS011;4111;50.972;7.072;2023-07-31T00:59:59;4.57;;;2.97;;
8139;SDS011;4111;50.972;7.072;2023-07-31T01:02:26;4.17;;;3.37;;
8139;SDS011;4111;50.972;7.072;2023-07-31T01:04:53;6.70;;;3.00;;
8139;SDS011;4111;50.972;7.072;2023-07-31T01:07:27;4.10;;;3.03;;
8139;SDS011;4111;50.972;7.072;2023-07-31T01:10:21;6.33;;;3.30;;
8139;SDS011;4111;50.972;7.072;2023-07-31T01:12:52;6.87;;;3.33;;
8139;SDS011;4111;50.972;7.072;2023-07-31T01:15:20;6.23;;;3.03;;
8139;SDS011;4111;50.972;7.072;2023-07-31T01:17:47;4.40;;;3.17;;
8139;SDS011;4111;50.972;7.072;2023-07-31T01:20:15;11.17;;;3.17;;
8139;SDS011;4111;50.972;7.072;2023-07-31T01:26:03;7.07;;;3.73;;
8139;SDS011;4111;50.972;7.072;2023-07-31T01:28:40;3.17;;;2.83;;
8139;SDS011;4111;50.972;7.072;2023-07-31T01:31:22;6.07;;;3.33;;
8139;SDS011;4111;50.972;7.072;2023-07-31T01:33:50;6.27;;;2.90;;
8139;SDS011;4111;50.972;7.072;2023-07-31T01:36:20;4.03;;;3.20;;
8139;SDS011;4111;50.972;7.072;2023-07-31T01:38:47;6.80;;;3.40;;
8139;SDS011;4111;50.972;7.072;2023-07-31T01:41:16;5.60;;;3.53;;
8139;SDS011;4111;50.972;7.072;2023-07-31T01:43:43;5.73;;;2.90;;
8139;SDS011;4111;50.972;7.072;2023-07-31T01:46:10;4.43;;;3.10;;
8139;SDS011;4111;50.972;7.072;2023-07-31T01:48:37;8.23;;;3.63;;
8139;SDS011;4111;50.972;7.072;2023-07-31T01:51:03;4.50;;;2.90;;
8139;SDS011;4111;50.972;7.072;2023-07-31T01:53:31;5.47;;;2.80;;
8139;SDS011;4111;50.972;7.072;2023-07-31T01:55:57;5.30;;;3.07;;
8139;SDS011;4111;50.972;7.072;2023-07-31T01:58:24;5.47;;;3.37;;
8139;SDS011;4111;50.972;7.072;2023-07-31T02:00:50;6.63;;;3.37;;
8139;SDS011;4111;50.972;7.072;2023-07-31T02:03:17;5.20;;;2.83;;
8139;SDS011;4111;50.972;7.072;2023-07-31T02:05:47;7.07;;;3.37;;
8139;SDS011;4111;50.972;7.072;2023-07-31T02:08:15;6.93;;;2.90;;
8139;SDS011;4111;50.972;7.072;2023-07-31T02:10:42;7.10;;;3.23;;
8139;SDS011;4111;50.972;7.072;2023-07-31T02:13:09;3.83;;;2.97;;
8139;SDS011;4111;50.972;7.072;2023-07-31T02:15:35;4.07;;;3.03;;
8139;SDS011;4111;50.972;7.072;2023-07-31T02:18:03;8.17;;;3.23;;
8139;SDS011;4111;50.972;7.072;2023-07-31T02:20:29;4.60;;;2.97;;
8139;SDS011;4111;50.972;7.072;2023-07-31T02:22:56;5.43;;;3.13;;
8139;SDS011;4111;50.972;7.072;2023-07-31T02:25:22;4.57;;;2.80;;
8139;SDS011;4111;50.972;7.072;2023-07-31T02:27:49;7.93;;;3.40;;
8139;SDS011;4111;50.972;7.072;2023-07-31T02:30:15;6.97;;;3.17;;
8139;SDS011;4111;50.972;7.072;2023-07-31T02:32:41;6.30;;;3.40;;
8139;SDS011;4111;50.972;7.072;2023-07-31T02:35:08;3.47;;;2.90;;
8139;SDS011;4111;50.972;7.072;2023-07-31T02:37:34;7.33;;;3.10;;
8139;SDS011;4111;50.972;7.072;2023-07-31T02:40:01;7.20;;;3.20;;
8139;SDS011;4111;50.972;7.072;2023-07-31T02:42:27;5.30;;;3.10;;
8139;SDS011;4111;50.972;7.072;2023-07-31T02:44:54;4.57;;;2.87;;
8139;SDS011;4111;50.972;7.072;2023-07-31T02:47:22;6.47;;;3.27;;
8139;SDS011;4111;50.972;7.072;2023-07-31T02:49:49;6.53;;;3.97;;
8139;SDS011;4111;50.972;7.072;2023-07-31T02:52:15;9.13;;;2.87;;
8139;SDS011;4111;50.972;7.072;2023-07-31T02:54:45;11.23;;;3.17;;
8139;SDS011;4111;50.972;7.072;2023-07-31T02:57:11;6.30;;;2.93;;
8139;SDS011;4111;50.972;7.072;2023-07-31T02:59:38;8.30;;;3.37;;
8139;SDS011;4111;50.972;7.072;2023-07-31T03:02:04;5.07;;;3.33;;
8139;SDS011;4111;50.972;7.072;2023-07-31T03:04:31;5.13;;;3.37;;
8139;SDS011;4111;50.972;7.072;2023-07-31T03:06:57;6.13;;;3.40;;
8139;SDS011;4111;50.972;7.072;2023-07-31T03:09:24;9.87;;;3.20;;
8139;SDS011;4111;50.972;7.072;2023-07-31T03:11:50;6.73;;;3.40;;
8139;SDS011;4111;50.972;7.072;2023-07-31T03:14:16;6.00;;;3.40;;
8139;SDS011;4111;50.972;7.072;2023-07-31T03:16:43;7.37;;;3.40;;
8139;SDS011;4111;50.972;7.072;2023-07-31T03:19:10;7.97;;;3.40;;
8139;SDS011;4111;50.972;7.072;2023-07-31T03:21:36;5.20;;;3.20;;
8139;SDS011;4111;50.972;7.072;2023-07-31T03:24:02;4.20;;;3.40;;
8139;SDS011;4111;50.972;7.072;2023-07-31T03:26:31;4.07;;;2.97;;
8139;SDS011;4111;50.972;7.072;2023-07-31T03:28:57;6.27;;;3.60;;
8139;SDS011;4111;50.972;7.072;2023-07-31T03:31:24;8.77;;;4.23;;
8139;SDS011;4111;50.972;7.072;2023-07-31T03:33:50;7.03;;;3.40;;
8139;SDS011;4111;50.972;7.072;2023-07-31T03:36:17;5.93;;;3.20;;
8139;SDS011;4111;50.972;7.072;2023-07-31T03:38:43;6.23;;;3.70;;
8139;SDS011;4111;50.972;7.072;2023-07-31T03:41:09;7.60;;;3.83;;
8139;SDS011;4111;50.972;7.072;2023-07-31T03:43:36;6.97;;;3.37;;
8139;SDS011;4111;50.972;7.072;2023-07-31T03:46:03;6.33;;;3.43;;
8139;SDS011;4111;50.972;7.072;2023-07-31T03:48:29;10.40;;;4.00;;
8139;SDS011;4111;50.972;7.072;2023-07-31T03:50:59;9.03;;;4.67;;
8139;SDS011;4111;50.972;7.072;2023-07-31T03:53:25;6.00;;;3.83;;
8139;SDS011;4111;50.972;7.072;2023-07-31T03:55:54;7.33;;;3.80;;
8139;SDS011;4111;50.972;7.072;2023-07-31T03:58:20;7.93;;;3.90;;
8139;SDS011;4111;50.972;7.072;2023-07-31T04:00:47;7.30;;;3.53;;
8139;SDS011;4111;50.972;7.072;2023-07-31T04:03:13;7.17;;;3.43;;
8139;SDS011;4111;50.972;7.072;2023-07-31T04:05:40;9.17;;;4.17;;
8139;SDS011;4111;50.972;7.072;2023-07-31T04:08:06;8.20;;;3.80;;
8139;SDS011;4111;50.972;7.072;2023-07-31T04:10:32;6.20;;;4.20;;
8139;SDS011;4111;50.972;7.072;2023-07-31T04:12:59;8.70;;;3.53;;
8139;SDS011;4111;50.972;7.072;2023-07-31T04:15:26;5.17;;;3.63;;
8139;SDS011;4111;50.972;7.072;2023-07-31T04:17:53;7.43;;;4.10;;
8139;SDS011;4111;50.972;7.072;2023-07-31T04:20:19;5.83;;;3.90;;
8139;SDS011;4111;50.972;7.072;2023-07-31T04:22:46;4.37;;;3.30;;
8139;SDS011;4111;50.972;7.072;2023-07-31T04:25:12;9.73;;;3.90;;
8139;SDS011;4111;50.972;7.072;2023-07-31T04:27:39;5.63;;;4.03;;
8139;SDS011;4111;50.972;7.072;2023-07-31T04:30:06;6.53;;;3.80;;
8139;SDS011;4111;50.972;7.072;2023-07-31T04:32:32;9.33;;;3.97;;
8139;SDS011;4111;50.972;7.072;2023-07-31T04:34:59;5.53;;;3.83;;
8139;SDS011;4111;50.972;7.072;2023-07-31T04:37:26;5.53;;;3.60;;
8139;SDS011;4111;50.972;7.072;2023-07-31T04:39:52;6.53;;;4.07;;
8139;SDS011;4111;50.972;7.072;2023-07-31T04:42:18;8.83;;;3.93;;
8139;SDS011;4111;50.972;7.072;2023-07-31T04:44:45;6.83;;;3.90;;
8139;SDS011;4111;50.972;7.072;2023-07-31T04:47:11;4.53;;;3.80;;
8139;SDS011;4111;50.972;7.072;2023-07-31T04:49:38;4.37;;;3.70;;
8139;SDS011;4111;50.972;7.072;2023-07-31T04:52:04;9.07;;;4.20;;
8139;SDS011;4111;50.972;7.072;2023-07-31T04:54:31;5.73;;;3.70;;
8139;SDS011;4111;50.972;7.072;2023-07-31T04:56:57;7.57;;;4.23;;
8139;SDS011;4111;50.972;7.072;2023-07-31T04:59:23;8.10;;;4.20;;
8139;SDS011;4111;50.972;7.072;2023-07-31T05:01:50;6.07;;;4.20;;
8139;SDS011;4111;50.972;7.072;2023-07-31T05:04:16;10.73;;;4.83;;
8139;SDS011;4111;50.972;7.072;2023-07-31T05:06:43;9.13;;;4.53;;
8139;SDS011;4111;50.972;7.072;2023-07-31T05:09:09;5.00;;;3.50;;
8139;SDS011;4111;50.972;7.072;2023-07-31T05:11:36;5.87;;;3.80;;
8139;SDS011;4111;50.972;7.072;2023-07-31T05:14:03;6.43;;;4.00;;
8139;SDS011;4111;50.972;7.072;2023-07-31T05:16:29;4.40;;;3.93;;
8139;SDS011;4111;50.972;7.072;2023-07-31T05:18:56;6.07;;;3.67;;
8139;SDS011;4111;50.972;7.072;2023-07-31T05:21:22;4.93;;;3.60;;
8139;SDS011;4111;50.972;7.072;2023-07-31T05:23:48;5.90;;;3.73;;
8139;SDS011;4111;50.972;7.072;2023-07-31T05:26:27;9.73;;;3.80;;
8139;SDS011;4111;50.972;7.072;2023-07-31T05:28:53;5.57;;;4.27;;
8139;SDS011;4111;50.972;7.072;2023-07-31T05:31:20;5.33;;;3.90;;
8139;SDS011;4111;50.972;7.072;2023-07-31T05:33:48;5.33;;;3.73;;
8139;SDS011;4111;50.972;7.072;2023-07-31T05:36:16;5.80;;;3.87;;
8139;SDS011;4111;50.972;7.072;2023-07-31T05:38:43;5.63;;;3.70;;
8139;SDS011;4111;50.972;7.072;2023-07-31T05:41:12;4.53;;;3.50;;
8139;SDS011;4111;50.972;7.072;2023-07-31T05:43:39;4.37;;;3.30;;
8139;SDS011;4111;50.972;7.072;2023-07-31T05:46:06;5.77;;;3.47;;
8139;SDS011;4111;50.972;7.072;2023-07-31T05:48:33;4.07;;;3.47;;
8139;SDS011;4111;50.972;7.072;2023-07-31T05:51:00;4.20;;;3.53;;
8139;SDS011;4111;50.972;7.072;2023-07-31T05:53:26;6.23;;;3.27;;
8139;SDS011;4111;50.972;7.072;2023-07-31T05:55:53;9.10;;;4.03;;
8139;SDS011;4111;50.972;7.072;2023-07-31T05:58:19;5.97;;;3.80;;
8139;SDS011;4111;50.972;7.072;2023-07-31T06:00:45;5.73;;;3.67;;
8139;SDS011;4111;50.972;7.072;2023-07-31T06:03:12;4.70;;;3.47;;
8139;SDS011;4111;50.972;7.072;2023-07-31T06:05:38;5.37;;;3.20;;
8139;SDS011;4111;50.972;7.072;2023-07-31T06:08:05;5.10;;;3.60;;
8139;SDS011;4111;50.972;7.072;2023-07-31T06:10:31;4.97;;;3.47;;
8139;SDS011;4111;50.972;7.072;2023-07-31T06:12:57;6.77;;;4.13;;
8139;SDS011;4111;50.972;7.072;2023-07-31T06:15:24;5.17;;;3.80;;
8139;SDS011;4111;50.972;7.072;2023-07-31T06:17:51;8.33;;;3.73;;
8139;SDS011;4111;50.972;7.072;2023-07-31T06:20:18;6.10;;;4.10;;
8139;SDS011;4111;50.972;7.072;2023-07-31T06:22:44;4.63;;;3.53;;
8139;SDS011;4111;50.972;7.072;2023-07-31T06:25:11;3.93;;;3.60;;
8139;SDS011;4111;50.972;7.072;2023-07-31T06:27:41;4.33;;;3.40;;
8139;SDS011;4111;50.972;7.072;2023-07-31T06:30:07;4.53;;;3.63;;
8139;SDS011;4111;50.972;7.072;2023-07-31T06:32:34;5.93;;;4.27;;
8139;SDS011;4111;50.972;7.072;2023-07-31T06:35:00;5.07;;;4.50;;
8139;SDS011;4111;50.972;7.072;2023-07-31T06:37:27;7.33;;;4.00;;
8139;SDS011;4111;50.972;7.072;2023-07-31T06:39:53;6.83;;;4.27;;
8139;SDS011;4111;50.972;7.072;2023-07-31T06:42:19;5.73;;;3.50;;
8139;SDS011;4111;50.972;7.072;2023-07-31T06:44:46;6.37;;;3.77;;
8139;SDS011;4111;50.972;7.072;2023-07-31T06:47:12;6.43;;;3.87;;
8139;SDS011;4111;50.972;7.072;2023-07-31T06:49:38;5.13;;;3.80;;
8139;SDS011;4111;50.972;7.072;2023-07-31T06:52:05;6.63;;;3.87;;
8139;SDS011;4111;50.972;7.072;2023-07-31T06:54:32;5.57;;;4.50;;
8139;SDS011;4111;50.972;7.072;2023-07-31T06:56:58;4.30;;;3.63;;
8139;SDS011;4111;50.972;7.072;2023-07-31T06:59:24;11.40;;;4.00;;
8139;SDS011;4111;50.972;7.072;2023-07-31T07:01:51;6.33;;;4.00;;
8139;SDS011;4111;50.972;7.072;2023-07-31T07:04:17;6.87;;;3.40;;
8139;SDS011;4111;50.972;7.072;2023-07-31T07:06:44;9.07;;;5.80;;
8139;SDS011;4111;50.972;7.072;2023-07-31T07:09:10;5.60;;;3.80;;
8139;SDS011;4111;50.972;7.072;2023-07-31T07:11:36;5.03;;;3.93;;
8139;SDS011;4111;50.972;7.072;2023-07-31T07:14:03;7.03;;;3.90;;
8139;SDS011;4111;50.972;7.072;2023-07-31T07:16:30;5.53;;;4.30;;
8139;SDS011;4111;50.972;7.072;2023-07-31T07:18:56;5.97;;;3.93;;
8139;SDS011;4111;50.972;7.072;2023-07-31T07:21:30;4.33;;;3.20;;
8139;SDS011;4111;50.972;7.072;2023-07-31T07:23:57;5.20;;;3.70;;
8139;SDS011;4111;50.972;7.072;2023-07-31T07:26:23;4.27;;;3.40;;
8139;SDS011;4111;50.972;7.072;2023-07-31T07:28:49;9.17;;;4.90;;
8139;SDS011;4111;50.972;7.072;2023-07-31T07:31:16;8.10;;;3.90;;
8139;SDS011;4111;50.972;7.072;2023-07-31T07:33:43;5.00;;;3.77;;
8139;SDS011;4111;50.972;7.072;2023-07-31T07:36:09;4.37;;;3.90;;
8139;SDS011;4111;50.972;7.072;2023-07-31T07:38:36;5.63;;;3.93;;
8139;SDS011;4111;50.972;7.072;2023-07-31T07:41:03;5.87;;;3.83;;
8139;SDS011;4111;50.972;7.072;2023-07-31T07:43:29;6.57;;;3.67;;
8139;SDS011;4111;50.972;7.072;2023-07-31T07:45:56;5.23;;;4.07;;
8139;SDS011;4111;50.972;7.072;2023-07-31T07:48:22;4.13;;;3.60;;
8139;SDS011;4111;50.972;7.072;2023-07-31T07:50:49;7.00;;;4.30;;
8139;SDS011;4111;50.972;7.072;2023-07-31T07:53:16;6.77;;;3.87;;
8139;SDS011;4111;50.972;7.072;2023-07-31T07:55:42;7.23;;;4.37;;
8139;SDS011;4111;50.972;7.072;2023-07-31T07:58:09;5.47;;;4.03;;
8139;SDS011;4111;50.972;7.072;2023-07-31T08:00:35;6.37;;;4.30;;
8139;SDS011;4111;50.972;7.072;2023-07-31T08:03:01;7.50;;;4.30;;
8139;SDS011;4111;50.972;7.072;2023-07-31T08:05:28;6.80;;;4.17;;
8139;SDS011;4111;50.972;7.072;2023-07-31T08:07:58;5.67;;;4.37;;
8139;SDS011;4111;50.972;7.072;2023-07-31T08:10:25;6.73;;;4.40;;
8139;SDS011;4111;50.972;7.072;2023-07-31T08:12:51;5.67;;;4.13;;
8139;SDS011;4111;50.972;7.072;2023-07-31T08:15:17;6.20;;;4.07;;
8139;SDS011;4111;50.972;7.072;2023-07-31T08:17:44;8.40;;;4.10;;
8139;SDS011;4111;50.972;7.072;2023-07-31T08:20:10;6.67;;;3.93;;
8139;SDS011;4111;50.972;7.072;2023-07-31T08:22:37;6.90;;;4.47;;
8139;SDS011;4111;50.972;7.072;2023-07-31T08:25:04;5.03;;;3.53;;
8139;SDS011;4111;50.972;7.072;2023-07-31T08:27:31;6.47;;;4.00;;
8139;SDS011;4111;50.972;7.072;2023-07-31T08:29:57;5.47;;;3.63;;
8139;SDS011;4111;50.972;7.072;2023-07-31T08:32:23;7.10;;;4.17;;
8139;SDS011;4111;50.972;7.072;2023-07-31T08:34:50;7.23;;;4.13;;
8139;SDS011;4111;50.972;7.072;2023-07-31T08:37:16;6.63;;;5.70;;
8139;SDS011;4111;50.972;7.072;2023-07-31T08:39:43;4.70;;;3.63;;
8139;SDS011;4111;50.972;7.072;2023-07-31T08:42:09;6.67;;;3.67;;
8139;SDS011;4111;50.972;7.072;2023-07-31T08:44:36;5.90;;;3.87;;
8139;SDS011;4111;50.972;7.072;2023-07-31T08:47:03;6.23;;;3.87;;
8139;SDS011;4111;50.972;7.072;2023-07-31T08:49:30;4.83;;;3.57;;
8139;SDS011;4111;50.972;7.072;2023-07-31T08:51:57;5.77;;;3.77;;
8139;SDS011;4111;50.972;7.072;2023-07-31T08:54:24;6.77;;;4.30;;
8139;SDS011;4111;50.972;7.072;2023-07-31T08:56:51;6.73;;;3.93;;
8139;SDS011;4111;50.972;7.072;2023-07-31T08:59:19;4.67;;;3.90;;
8139;SDS011;4111;50.972;7.072;2023-07-31T09:01:48;5.37;;;3.77;;
8139;SDS011;4111;50.972;7.072;2023-07-31T09:04:16;5.60;;;3.70;;
8139;SDS011;4111;50.972;7.072;2023-07-31T09:06:45;5.07;;;3.50;;
8139;SDS011;4111;50.972;7.072;2023-07-31T09:09:14;5.33;;;3.83;;
8139;SDS011;4111;50.972;7.072;2023-07-31T09:11:41;5.47;;;3.87;;
8139;SDS011;4111;50.972;7.072;2023-07-31T09:14:08;7.37;;;3.80;;
8139;SDS011;4111;50.972;7.072;2023-07-31T09:16:35;6.03;;;3.60;;
8139;SDS011;4111;50.972;7.072;2023-07-31T09:19:01;5.43;;;3.73;;
8139;SDS011;4111;50.972;7.072;2023-07-31T09:21:29;5.00;;;3.70;;
8139;SDS011;4111;50.972;7.072;2023-07-31T09:23:56;8.10;;;4.20;;
8139;SDS011;4111;50.972;7.072;2023-07-31T09:26:33;4.53;;;3.47;;
8139;SDS011;4111;50.972;7.072;2023-07-31T09:29:03;5.13;;;3.70;;
8139;SDS011;4111;50.972;7.072;2023-07-31T09:31:41;3.30;;;3.00;;
8139;SDS011;4111;50.972;7.072;2023-07-31T09:34:09;4.07;;;2.70;;
8139;SDS011;4111;50.972;7.072;2023-07-31T09:36:47;3.27;;;2.57;;
8139;SDS011;4111;50.972;7.072;2023-07-31T09:39:16;4.17;;;3.13;;
8139;SDS011;4111;50.972;7.072;2023-07-31T09:41:55;4.33;;;3.10;;
8139;SDS011;4111;50.972;7.072;2023-07-31T09:44:36;6.73;;;3.47;;
8139;SDS011;4111;50.972;7.072;2023-07-31T09:47:05;5.30;;;3.20;;
8139;SDS011;4111;50.972;7.072;2023-07-31T09:49:31;4.13;;;2.57;;
8139;SDS011;4111;50.972;7.072;2023-07-31T09:51:58;8.13;;;2.90;;
8139;SDS011;4111;50.972;7.072;2023-07-31T09:54:24;3.37;;;2.97;;
8139;SDS011;4111;50.972;7.072;2023-07-31T09:56:51;4.87;;;3.13;;
8139;SDS011;4111;50.972;7.072;2023-07-31T09:59:18;3.80;;;3.00;;
8139;SDS011;4111;50.972;7.072;2023-07-31T10:01:49;3.97;;;2.80;;
8139;SDS011;4111;50.972;7.072;2023-07-31T10:04:16;4.93;;;3.30;;
8139;SDS011;4111;50.972;7.072;2023-07-31T10:06:46;4.70;;;3.10;;
8139;SDS011;4111;50.972;7.072;2023-07-31T10:09:16;4.37;;;3.20;;
8139;SDS011;4111;50.972;7.072;2023-07-31T10:11:50;5.10;;;3.57;;
8139;SDS011;4111;50.972;7.072;2023-07-31T10:14:25;3.53;;;3.23;;
8139;SDS011;4111;50.972;7.072;2023-07-31T10:16:53;3.50;;;3.20;;
8139;SDS011;4111;50.972;7.072;2023-07-31T10:19:20;3.90;;;3.40;;
8139;SDS011;4111;50.972;7.072;2023-07-31T10:21:48;5.70;;;3.47;;
8139;SDS011;4111;50.972;7.072;2023-07-31T10:24:15;4.63;;;3.03;;
8139;SDS011;4111;50.972;7.072;2023-07-31T10:26:42;5.73;;;3.50;;
8139;SDS011;4111;50.972;7.072;2023-07-31T10:29:11;7.90;;;3.60;;
8139;SDS011;4111;50.972;7.072;2023-07-31T10:31:39;7.07;;;3.33;;
8139;SDS011;4111;50.972;7.072;2023-07-31T10:34:07;7.83;;;3.67;;
8139;SDS011;4111;50.972;7.072;2023-07-31T10:36:33;7.00;;;3.47;;
8139;SDS011;4111;50.972;7.072;2023-07-31T10:39:00;4.40;;;3.60;;
8139;SDS011;4111;50.972;7.072;2023-07-31T10:41:30;6.70;;;3.67;;
8139;SDS011;4111;50.972;7.072;2023-07-31T10:44:00;6.80;;;3.30;;
8139;SDS011;4111;50.972;7.072;2023-07-31T10:46:27;6.43;;;3.40;;
8139;SDS011;4111;50.972;7.072;2023-07-31T10:48:58;5.73;;;4.00;;
8139;SDS011;4111;50.972;7.072;2023-07-31T10:51:33;5.43;;;3.90;;
8139;SDS011;4111;50.972;7.072;2023-07-31T10:54:10;6.20;;;4.80;;
8139;SDS011;4111;50.972;7.072;2023-07-31T10:56:38;7.20;;;3.87;;
8139;SDS011;4111;50.972;7.072;2023-07-31T10:59:05;5.83;;;3.50;;
8139;SDS011;4111;50.972;7.072;2023-07-31T11:01:51;4.73;;;4.13;;
8139;SDS011;4111;50.972;7.072;2023-07-31T11:04:22;4.53;;;3.47;;
8139;SDS011;4111;50.972;7.072;2023-07-31T11:06:55;5.83;;;3.77;;
8139;SDS011;4111;50.972;7.072;2023-07-31T11:09:27;5.00;;;2.70;;
8139;SDS011;4111;50.972;7.072;2023-07-31T11:11:59;4.47;;;3.13;;
8139;SDS011;4111;50.972;7.072;2023-07-31T11:14:26;3.20;;;2.53;;
8139;SDS011;4111;50.972;7.072;2023-07-31T11:16:52;4.00;;;3.17;;
8139;SDS011;4111;50.972;7.072;2023-07-31T11:19:22;3.40;;;2.73;;
8139;SDS011;4111;50.972;7.072;2023-07-31T11:21:50;2.83;;;2.50;;
8139;SDS011;4111;50.972;7.072;2023-07-31T11:24:18;3.50;;;2.00;;
8139;SDS011;4111;50.972;7.072;2023-07-31T11:26:51;2.00;;;1.90;;
8139;SDS011;4111;50.972;7.072;2023-07-31T11:29:19;2.13;;;1.93;;
8139;SDS011;4111;50.972;7.072;2023-07-31T11:31:46;4.53;;;2.30;;
8139;SDS011;4111;50.972;7.072;2023-07-31T11:34:13;3.83;;;2.10;;
8139;SDS011;4111;50.972;7.072;2023-07-31T11:36:40;2.60;;;2.00;;
8139;SDS011;4111;50.972;7.072;2023-07-31T11:39:07;2.83;;;1.80;;
8139;SDS011;4111;50.972;7.072;2023-07-31T11:41:35;2.50;;;2.30;;
8139;SDS011;4111;50.972;7.072;2023-07-31T11:44:01;4.07;;;1.70;;
8139;SDS011;4111;50.972;7.072;2023-07-31T11:46:46;1.83;;;1.63;;
8139;SDS011;4111;50.972;7.072;2023-07-31T11:49:13;3.27;;;1.70;;
8139;SDS011;4111;50.972;7.072;2023-07-31T11:51:40;2.60;;;1.63;;
8139;SDS011;4111;50.972;7.072;2023-07-31T11:54:07;1.43;;;1.30;;
8139;SDS011;4111;50.972;7.072;2023-07-31T11:56:34;1.87;;;1.50;;
8139;SDS011;4111;50.972;7.072;2023-07-31T11:59:00;1.93;;;1.70;;
8139;SDS011;4111;50.972;7.072;2023-07-31T12:01:29;2.20;;;1.60;;
8139;SDS011;4111;50.972;7.072;2023-07-31T12:03:56;1.57;;;1.47;;
8139;SDS011;4111;50.972;7.072;2023-07-31T12:06:36;2.13;;;1.57;;
8139;SDS011;4111;50.972;7.072;2023-07-31T12:09:04;1.53;;;1.40;;
8139;SDS011;4111;50.972;7.072;2023-07-31T12:11:31;2.50;;;1.10;;
8139;SDS011;4111;50.972;7.072;2023-07-31T12:13:58;1.03;;;1.03;;
8139;SDS011;4111;50.972;7.072;2023-07-31T12:16:25;1.17;;;1.03;;
8139;SDS011;4111;50.972;7.072;2023-07-31T12:18:53;1.30;;;1.20;;
8139;SDS011;4111;50.972;7.072;2023-07-31T12:21:20;1.07;;;0.97;;
8139;SDS011;4111;50.972;7.072;2023-07-31T12:23:47;1.20;;;1.10;;
8139;SDS011;4111;50.972;7.072;2023-07-31T12:26:14;2.60;;;1.13;;
8139;SDS011;4111;50.972;7.072;2023-07-31T12:28:47;1.00;;;1.00;;
8139;SDS011;4111;50.972;7.072;2023-07-31T12:31:16;1.20;;;1.10;;
8139;SDS011;4111;50.972;7.072;2023-07-31T12:33:48;1.03;;;1.03;;
8139;SDS011;4111;50.972;7.072;2023-07-31T12:36:17;0.87;;;0.87;;
8139;SDS011;4111;50.972;7.072;2023-07-31T12:38:46;1.40;;;1.30;;
8139;SDS011;4111;50.972;7.072;2023-07-31T12:41:12;1.13;;;1.07;;
8139;SDS011;4111;50.972;7.072;2023-07-31T12:43:40;1.47;;;1.30;;
8139;SDS011;4111;50.972;7.072;2023-07-31T12:46:08;1.20;;;1.20;;
8139;SDS011;4111;50.972;7.072;2023-07-31T12:48:35;1.10;;;1.10;;
8139;SDS011;4111;50.972;7.072;2023-07-31T12:51:03;2.20;;;1.20;;
8139;SDS011;4111;50.972;7.072;2023-07-31T12:53:29;1.70;;;1.23;;
8139;SDS011;4111;50.972;7.072;2023-07-31T12:55:56;1.63;;;1.53;;
8139;SDS011;4111;50.972;7.072;2023-07-31T12:58:23;1.43;;;1.33;;
8139;SDS011;4111;50.972;7.072;2023-07-31T13:00:50;1.83;;;1.70;;
8139;SDS011;4111;50.972;7.072;2023-07-31T13:03:16;1.70;;;1.60;;
8139;SDS011;4111;50.972;7.072;2023-07-31T13:05:43;1.90;;;1.80;;
8139;SDS011;4111;50.972;7.072;2023-07-31T13:08:09;1.83;;;1.73;;
8139;SDS011;4111;50.972;7.072;2023-07-31T13:10:36;4.07;;;2.20;;
8139;SDS011;4111;50.972;7.072;2023-07-31T13:13:02;1.80;;;1.70;;
8139;SDS011;4111;50.972;7.072;2023-07-31T13:15:29;2.23;;;2.03;;
8139;SDS011;4111;50.972;7.072;2023-07-31T13:17:55;2.10;;;1.90;;
8139;SDS011;4111;50.972;7.072;2023-07-31T13:20:22;2.87;;;2.20;;
8139;SDS011;4111;50.972;7.072;2023-07-31T13:22:48;2.60;;;2.37;;
8139;SDS011;4111;50.972;7.072;2023-07-31T13:25:15;2.97;;;2.67;;
8139;SDS011;4111;50.972;7.072;2023-07-31T13:27:41;2.77;;;2.50;;
8139;SDS011;4111;50.972;7.072;2023-07-31T13:30:08;2.80;;;2.60;;
8139;SDS011;4111;50.972;7.072;2023-07-31T13:32:35;5.40;;;2.13;;
8139;SDS011;4111;50.972;7.072;2023-07-31T13:35:08;3.23;;;2.93;;
8139;SDS011;4111;50.972;7.072;2023-07-31T13:37:35;2.90;;;2.70;;
8139;SDS011;4111;50.972;7.072;2023-07-31T13:40:02;2.60;;;2.40;;
8139;SDS011;4111;50.972;7.072;2023-07-31T13:42:31;2.90;;;2.57;;
8139;SDS011;4111;50.972;7.072;2023-07-31T13:44:58;2.50;;;2.30;;
8139;SDS011;4111;50.972;7.072;2023-07-31T13:47:24;3.10;;;2.70;;
8139;SDS011;4111;50.972;7.072;2023-07-31T13:49:51;3.07;;;2.77;;
8139;SDS011;4111;50.972;7.072;2023-07-31T13:52:17;2.97;;;2.77;;
8139;SDS011;4111;50.972;7.072;2023-07-31T13:54:44;2.93;;;2.70;;
8139;SDS011;4111;50.972;7.072;2023-07-31T13:57:10;3.57;;;2.30;;
8139;SDS011;4111;50.972;7.072;2023-07-31T13:59:37;2.90;;;2.60;;
8139;SDS011;4111;50.972;7.072;2023-07-31T14:02:03;3.27;;;2.73;;
8139;SDS011;4111;50.972;7.072;2023-07-31T14:04:30;4.87;;;3.30;;
8139;SDS011;4111;50.972;7.072;2023-07-31T14:06:56;3.77;;;2.60;;
8139;SDS011;4111;50.972;7.072;2023-07-31T14:09:23;3.30;;;3.00;;
8139;SDS011;4111;50.972;7.072;2023-07-31T14:11:49;5.10;;;2.57;;
8139;SDS011;4111;50.972;7.072;2023-07-31T14:14:16;4.07;;;2.50;;
8139;SDS011;4111;50.972;7.072;2023-07-31T14:16:44;3.23;;;2.93;;
8139;SDS011;4111;50.972;7.072;2023-07-31T14:19:10;2.80;;;2.60;;
8139;SDS011;4111;50.972;7.072;2023-07-31T14:21:37;2.33;;;2.20;;
8139;SDS011;4111;50.972;7.072;2023-07-31T14:24:03;2.23;;;2.13;;
8139;SDS011;4111;50.972;7.072;2023-07-31T14:26:30;7.03;;;2.50;;
8139;SDS011;4111;50.972;7.072;2023-07-31T14:28:57;2.73;;;2.30;;
8139;SDS011;4111;50.972;7.072;2023-07-31T14:31:23;3.07;;;2.20;;
8139;SDS011;4111;50.972;7.072;2023-07-31T14:33:50;3.13;;;2.40;;
8139;SDS011;4111;50.972;7.072;2023-07-31T14:36:16;2.57;;;2.37;;
8139;SDS011;4111;50.972;7.072;2023-07-31T14:38:42;4.00;;;2.20;;
8139;SDS011;4111;50.972;7.072;2023-07-31T14:41:09;2.40;;;2.13;;
8139;SDS011;4111;50.972;7.072;2023-07-31T14:43:35;3.80;;;2.60;;
8139;SDS011;4111;50.972;7.072;2023-07-31T14:46:02;2.50;;;2.30;;
8139;SDS011;4111;50.972;7.072;2023-07-31T14:48:28;2.77;;;2.57;;
8139;SDS011;4111;50.972;7.072;2023-07-31T14:50:55;2.97;;;2.37;;
8139;SDS011;4111;50.972;7.072;2023-07-31T14:53:21;3.63;;;2.57;;
8139;SDS011;4111;50.972;7.072;2023-07-31T14:55:48;2.70;;;2.20;;
8139;SDS011;4111;50.972;7.072;2023-07-31T14:58:14;4.30;;;2.43;;
8139;SDS011;4111;50.972;7.072;2023-07-31T15:00:43;3.67;;;2.77;;
8139;SDS011;4111;50.972;7.072;2023-07-31T15:03:09;4.23;;;2.50;;
8139;SDS011;4111;50.972;7.072;2023-07-31T15:05:36;2.93;;;2.60;;
8139;SDS011;4111;50.972;7.072;2023-07-31T15:08:02;2.70;;;2.50;;
8139;SDS011;4111;50.972;7.072;2023-07-31T15:10:29;3.00;;;2.70;;
8139;SDS011;4111;50.972;7.072;2023-07-31T15:12:55;2.67;;;2.47;;
8139;SDS011;4111;50.972;7.072;2023-07-31T15:15:22;2.57;;;2.37;;
8139;SDS011;4111;50.972;7.072;2023-07-31T15:17:48;3.00;;;2.80;;
8139;SDS011;4111;50.972;7.072;2023-07-31T15:20:15;2.90;;;2.70;;